sensor_id;sensor_type;location;lat;lon;timestamp;P1;durP1;ratioP1;P2;durP2;ratioP2
79074;SDS011;68476;42.710;23.388;2024-02-21T00:00:39;8.85;;;6.10;;
79074;SDS011;68476;42.710;23.388;2024-02-21T00:03:05;8.38;;;6.18;;
79074;SDS011;68476;42.710;23.388;2024-02-21T00:05:31;8.23;;;5.63;;
79074;SDS011;68476;42.710;23.388;2024-02-21T00:07:58;8.98;;;5.82;;
79074;SDS011;68476;42.710;23.388;2024-02-21T00:10:24;8.80;;;6.07;;
79074;SDS011;68476;42.710;23.388;2024-02-21T00:12:50;10.65;;;6.18;;
79074;SDS011;68476;42.710;23.388;2024-02-21T00:15:16;8.88;;;5.97;;
79074;SDS011;68476;42.710;23.388;2024-02-21T00:17:43;10.75;;;6.60;;
79074;SDS011;68476;42.710;23.388;2024-02-21T00:20:09;8.52;;;6.00;;
79074;SDS011;68476;42.710;23.388;2024-02-21T00:22:35;10.40;;;6.47;;
79074;SDS011;68476;42.710;23.388;2024-02-21T00:25:01;8.95;;;5.78;;
79074;SDS011;68476;42.710;23.388;2024-02-21T00:27:27;9.07;;;6.13;;
79074;SDS011;68476;42.710;23.388;2024-02-21T00:29:52;11.68;;;6.65;;
79074;SDS011;68476;42.710;23.388;2024-02-21T00:32:18;9.23;;;5.38;;
79074;SDS011;68476;42.710;23.388;2024-02-21T00:34:43;10.13;;;5.85;;
79074;SDS011;68476;42.710;23.388;2024-02-21T00:37:09;9.52;;;6.20;;
79074;SDS011;68476;42.710;23.388;2024-02-21T00:39:34;8.30;;;5.80;;
79074;SDS011;68476;42.710;23.388;2024-02-21T00:42:00;8.65;;;5.78;;
79074;SDS011;68476;42.710;23.388;2024-02-21T00:44:26;8.02;;;5.32;;
79074;SDS011;68476;42.710;23.388;2024-02-21T00:46:51;9.45;;;6.35;;
79074;SDS011;68476;42.710;23.388;2024-02-21T00:49:17;9.00;;;6.38;;
79074;SDS011;68476;42.710;23.388;2024-02-21T00:51:43;8.73;;;5.45;;
79074;SDS011;68476;42.710;23.388;2024-02-21T00:54:08;8.45;;;5.30;;
79074;SDS011;68476;42.710;23.388;2024-02-21T00:56:34;8.88;;;5.63;;
79074;SDS011;68476;42.710;23.388;2024-02-21T00:59:00;9.88;;;6.20;;
79074;SDS011;68476;42.710;23.388;2024-02-21T01:01:25;8.05;;;5.70;;
79074;SDS011;68476;42.710;23.388;2024-02-21T01:03:51;7.53;;;5.20;;
79074;SDS011;68476;42.710;23.388;2024-02-21T01:06:19;7.38;;;4.93;;
79074;SDS011;68476;42.710;23.388;2024-02-21T01:08:45;9.50;;;5.25;;
79074;SDS011;68476;42.710;23.388;2024-02-21T01:11:12;8.80;;;5.55;;
79074;SDS011;68476;42.710;23.388;2024-02-21T01:13:38;9.15;;;5.30;;
79074;SDS011;68476;42.710;23.388;2024-02-21T01:16:04;10.90;;;5.57;;
79074;SDS011;68476;42.710;23.388;2024-02-21T01:18:31;9.50;;;5.57;;
79074;SDS011;68476;42.710;23.388;2024-02-21T01:20:57;7.93;;;4.72;;
79074;SDS011;68476;42.710;23.388;2024-02-21T01:23:23;8.35;;;5.53;;
79074;SDS011;68476;42.710;23.388;2024-02-21T01:25:48;6.50;;;4.68;;
79074;SDS011;68476;42.710;23.388;2024-02-21T01:28:14;7.60;;;4.57;;
79074;SDS011;68476;42.710;23.388;2024-02-21T01:30:40;8.30;;;5.25;;
79074;SDS011;68476;42.710;23.388;2024-02-21T01:33:05;7.50;;;4.88;;
79074;SDS011;68476;42.710;23.388;2024-02-21T01:35:31;9.00;;;5.65;;
79074;SDS011;68476;42.710;23.388;2024-02-21T01:37:56;10.75;;;5.70;;
79074;SDS011;68476;42.710;23.388;2024-02-21T01:40:21;8.77;;;5.20;;
79074;SDS011;68476;42.710;23.388;2024-02-21T01:42:47;9.82;;;6.30;;
79074;SDS011;68476;42.710;23.388;2024-02-21T01:45:13;8.90;;;5.72;;
79074;SDS011;68476;42.710;23.388;2024-02-21T01:47:39;8.20;;;5.38;;
79074;SDS011;68476;42.710;23.388;2024-02-21T01:50:05;8.15;;;5.60;;
79074;SDS011;68476;42.710;23.388;2024-02-21T01:52:31;7.85;;;5.38;;
79074;SDS011;68476;42.710;23.388;2024-02-21T01:54:59;7.93;;;4.75;;
79074;SDS011;68476;42.710;23.388;2024-02-21T01:57:26;7.38;;;5.38;;
79074;SDS011;68476;42.710;23.388;2024-02-21T01:59:52;8.32;;;5.57;;
79074;SDS011;68476;42.710;23.388;2024-02-21T02:02:17;8.18;;;5.63;;
79074;SDS011;68476;42.710;23.388;2024-02-21T02:04:43;9.20;;;6.00;;
79074;SDS011;68476;42.710;23.388;2024-02-21T02:07:10;8.85;;;5.57;;
79074;SDS011;68476;42.710;23.388;2024-02-21T02:09:35;8.63;;;5.78;;
79074;SDS011;68476;42.710;23.388;2024-02-21T02:12:01;9.20;;;5.40;;
79074;SDS011;68476;42.710;23.388;2024-02-21T02:14:27;5.88;;;4.53;;
79074;SDS011;68476;42.710;23.388;2024-02-21T02:16:52;8.63;;;5.72;;
79074;SDS011;68476;42.710;23.388;2024-02-21T02:19:18;7.50;;;4.95;;
79074;SDS011;68476;42.710;23.388;2024-02-21T02:21:48;8.40;;;5.43;;
79074;SDS011;68476;42.710;23.388;2024-02-21T02:24:21;8.18;;;4.68;;
79074;SDS011;68476;42.710;23.388;2024-02-21T02:26:49;8.93;;;5.68;;
79074;SDS011;68476;42.710;23.388;2024-02-21T02:29:14;8.10;;;5.53;;
79074;SDS011;68476;42.710;23.388;2024-02-21T02:31:41;9.07;;;5.60;;
79074;SDS011;68476;42.710;23.388;2024-02-21T02:34:07;8.00;;;5.55;;
79074;SDS011;68476;42.710;23.388;2024-02-21T02:36:32;8.63;;;6.13;;
79074;SDS011;68476;42.710;23.388;2024-02-21T02:38:58;8.68;;;5.97;;
79074;SDS011;68476;42.710;23.388;2024-02-21T02:41:24;10.23;;;6.15;;
79074;SDS011;68476;42.710;23.388;2024-02-21T02:43:49;10.43;;;6.60;;
79074;SDS011;68476;42.710;23.388;2024-02-21T02:46:15;9.45;;;6.05;;
79074;SDS011;68476;42.710;23.388;2024-02-21T02:48:41;9.90;;;6.80;;
79074;SDS011;68476;42.710;23.388;2024-02-21T02:51:06;10.23;;;6.60;;
79074;SDS011;68476;42.710;23.388;2024-02-21T02:53:32;10.80;;;7.15;;
79074;SDS011;68476;42.710;23.388;2024-02-21T02:55:57;10.75;;;6.45;;
79074;SDS011;68476;42.710;23.388;2024-02-21T02:58:23;10.02;;;6.72;;
79074;SDS011;68476;42.710;23.388;2024-02-21T03:00:48;10.50;;;7.13;;
79074;SDS011;68476;42.710;23.388;2024-02-21T03:03:14;11.18;;;6.88;;
79074;SDS011;68476;42.710;23.388;2024-02-21T03:05:39;11.52;;;6.93;;
79074;SDS011;68476;42.710;23.388;2024-02-21T03:08:05;10.10;;;6.78;;
79074;SDS011;68476;42.710;23.388;2024-02-21T03:10:35;11.13;;;7.20;;
79074;SDS011;68476;42.710;23.388;2024-02-21T03:13:00;10.10;;;6.72;;
79074;SDS011;68476;42.710;23.388;2024-02-21T03:15:26;9.98;;;6.70;;
79074;SDS011;68476;42.710;23.388;2024-02-21T03:17:52;11.85;;;7.38;;
79074;SDS011;68476;42.710;23.388;2024-02-21T03:20:17;10.90;;;6.68;;
79074;SDS011;68476;42.710;23.388;2024-02-21T03:22:44;10.82;;;7.43;;
79074;SDS011;68476;42.710;23.388;2024-02-21T03:25:10;10.48;;;7.07;;
79074;SDS011;68476;42.710;23.388;2024-02-21T03:27:36;11.32;;;7.53;;
79074;SDS011;68476;42.710;23.388;2024-02-21T03:30:02;11.30;;;6.72;;
79074;SDS011;68476;42.710;23.388;2024-02-21T03:32:29;11.15;;;6.63;;
79074;SDS011;68476;42.710;23.388;2024-02-21T03:34:55;13.57;;;7.70;;
79074;SDS011;68476;42.710;23.388;2024-02-21T03:37:20;11.48;;;7.32;;
79074;SDS011;68476;42.710;23.388;2024-02-21T03:39:45;10.88;;;6.88;;
79074;SDS011;68476;42.710;23.388;2024-02-21T03:42:11;11.98;;;7.00;;
79074;SDS011;68476;42.710;23.388;2024-02-21T03:44:37;9.80;;;6.53;;
79074;SDS011;68476;42.710;23.388;2024-02-21T03:47:02;13.45;;;7.72;;
79074;SDS011;68476;42.710;23.388;2024-02-21T03:49:28;11.35;;;7.82;;
79074;SDS011;68476;42.710;23.388;2024-02-21T03:51:53;15.05;;;8.70;;
79074;SDS011;68476;42.710;23.388;2024-02-21T03:54:19;13.55;;;8.15;;
79074;SDS011;68476;42.710;23.388;2024-02-21T03:56:45;15.30;;;8.70;;
79074;SDS011;68476;42.710;23.388;2024-02-21T03:59:12;12.40;;;7.88;;
79074;SDS011;68476;42.710;23.388;2024-02-21T04:01:38;17.33;;;9.48;;
79074;SDS011;68476;42.710;23.388;2024-02-21T04:04:04;13.60;;;8.73;;
79074;SDS011;68476;42.710;23.388;2024-02-21T04:06:29;14.35;;;8.07;;
79074;SDS011;68476;42.710;23.388;2024-02-21T04:08:55;13.45;;;9.45;;
79074;SDS011;68476;42.710;23.388;2024-02-21T04:11:21;14.10;;;8.70;;
79074;SDS011;68476;42.710;23.388;2024-02-21T04:13:47;14.10;;;8.05;;
79074;SDS011;68476;42.710;23.388;2024-02-21T04:16:15;15.43;;;9.43;;
79074;SDS011;68476;42.710;23.388;2024-02-21T04:18:40;16.20;;;10.02;;
79074;SDS011;68476;42.710;23.388;2024-02-21T04:21:06;15.10;;;8.98;;
79074;SDS011;68476;42.710;23.388;2024-02-21T04:23:31;14.32;;;9.45;;
79074;SDS011;68476;42.710;23.388;2024-02-21T04:25:57;14.80;;;9.07;;
79074;SDS011;68476;42.710;23.388;2024-02-21T04:28:22;15.55;;;9.48;;
79074;SDS011;68476;42.710;23.388;2024-02-21T04:30:48;13.63;;;9.05;;
79074;SDS011;68476;42.710;23.388;2024-02-21T04:33:13;14.30;;;9.18;;
79074;SDS011;68476;42.710;23.388;2024-02-21T04:35:39;14.38;;;9.32;;
79074;SDS011;68476;42.710;23.388;2024-02-21T04:38:04;15.35;;;9.10;;
79074;SDS011;68476;42.710;23.388;2024-02-21T04:40:30;14.10;;;9.00;;
79074;SDS011;68476;42.710;23.388;2024-02-21T04:42:56;14.32;;;8.98;;
79074;SDS011;68476;42.710;23.388;2024-02-21T04:45:22;12.50;;;8.35;;
79074;SDS011;68476;42.710;23.388;2024-02-21T04:47:47;11.48;;;8.43;;
79074;SDS011;68476;42.710;23.388;2024-02-21T04:50:13;12.50;;;8.63;;
79074;SDS011;68476;42.710;23.388;2024-02-21T04:52:39;12.35;;;7.93;;
79074;SDS011;68476;42.710;23.388;2024-02-21T04:55:04;13.25;;;7.97;;
79074;SDS011;68476;42.710;23.388;2024-02-21T04:57:30;11.38;;;7.53;;
79074;SDS011;68476;42.710;23.388;2024-02-21T04:59:55;12.05;;;7.85;;
79074;SDS011;68476;42.710;23.388;2024-02-21T05:02:21;12.15;;;8.43;;
79074;SDS011;68476;42.710;23.388;2024-02-21T05:04:49;11.13;;;6.80;;
79074;SDS011;68476;42.710;23.388;2024-02-21T05:07:15;11.50;;;7.72;;
79074;SDS011;68476;42.710;23.388;2024-02-21T05:09:42;14.82;;;8.88;;
79074;SDS011;68476;42.710;23.388;2024-02-21T05:12:07;12.82;;;8.63;;
79074;SDS011;68476;42.710;23.388;2024-02-21T05:14:33;12.50;;;8.35;;
79074;SDS011;68476;42.710;23.388;2024-02-21T05:16:59;13.77;;;9.18;;
79074;SDS011;68476;42.710;23.388;2024-02-21T05:19:24;13.55;;;9.25;;
79074;SDS011;68476;42.710;23.388;2024-02-21T05:21:50;14.85;;;10.07;;
79074;SDS011;68476;42.710;23.388;2024-02-21T05:24:15;14.38;;;9.60;;
79074;SDS011;68476;42.710;23.388;2024-02-21T05:26:41;15.68;;;9.80;;
79074;SDS011;68476;42.710;23.388;2024-02-21T05:29:06;15.73;;;9.02;;
79074;SDS011;68476;42.710;23.388;2024-02-21T05:34:16;14.65;;;10.07;;
79074;SDS011;68476;42.710;23.388;2024-02-21T05:36:41;15.07;;;9.77;;
79074;SDS011;68476;42.710;23.388;2024-02-21T05:39:07;15.07;;;9.68;;
79074;SDS011;68476;42.710;23.388;2024-02-21T05:41:32;15.48;;;10.50;;
79074;SDS011;68476;42.710;23.388;2024-02-21T05:43:58;19.20;;;11.10;;
79074;SDS011;68476;42.710;23.388;2024-02-21T05:46:23;16.50;;;10.50;;
79074;SDS011;68476;42.710;23.388;2024-02-21T05:48:49;18.20;;;11.20;;
79074;SDS011;68476;42.710;23.388;2024-02-21T05:51:15;21.98;;;13.52;;
79074;SDS011;68476;42.710;23.388;2024-02-21T05:53:40;19.08;;;11.57;;
79074;SDS011;68476;42.710;23.388;2024-02-21T05:56:14;18.10;;;11.40;;
79074;SDS011;68476;42.710;23.388;2024-02-21T05:58:40;18.33;;;10.82;;
79074;SDS011;68476;42.710;23.388;2024-02-21T06:01:06;17.55;;;11.18;;
79074;SDS011;68476;42.710;23.388;2024-02-21T06:03:32;15.30;;;11.32;;
79074;SDS011;68476;42.710;23.388;2024-02-21T06:05:59;17.27;;;11.23;;
79074;SDS011;68476;42.710;23.388;2024-02-21T06:08:26;20.08;;;11.90;;
79074;SDS011;68476;42.710;23.388;2024-02-21T06:10:51;18.90;;;11.73;;
79074;SDS011;68476;42.710;23.388;2024-02-21T06:13:28;19.10;;;11.75;;
79074;SDS011;68476;42.710;23.388;2024-02-21T06:15:54;17.58;;;10.88;;
79074;SDS011;68476;42.710;23.388;2024-02-21T06:18:19;20.08;;;11.00;;
79074;SDS011;68476;42.710;23.388;2024-02-21T06:20:45;20.77;;;11.95;;
79074;SDS011;68476;42.710;23.388;2024-02-21T06:23:11;20.20;;;11.90;;
79074;SDS011;68476;42.710;23.388;2024-02-21T06:25:38;22.33;;;12.55;;
79074;SDS011;68476;42.710;23.388;2024-02-21T06:28:04;17.00;;;11.00;;
79074;SDS011;68476;42.710;23.388;2024-02-21T06:30:30;17.77;;;11.48;;
79074;SDS011;68476;42.710;23.388;2024-02-21T06:32:55;18.23;;;11.52;;
79074;SDS011;68476;42.710;23.388;2024-02-21T06:35:21;17.55;;;10.90;;
79074;SDS011;68476;42.710;23.388;2024-02-21T06:37:49;17.75;;;11.65;;
79074;SDS011;68476;42.710;23.388;2024-02-21T06:40:21;18.33;;;10.88;;
79074;SDS011;68476;42.710;23.388;2024-02-21T06:42:47;18.25;;;11.75;;
79074;SDS011;68476;42.710;23.388;2024-02-21T06:45:13;17.55;;;10.45;;
79074;SDS011;68476;42.710;23.388;2024-02-21T06:47:38;17.30;;;11.05;;
79074;SDS011;68476;42.710;23.388;2024-02-21T06:50:04;16.65;;;11.15;;
79074;SDS011;68476;42.710;23.388;2024-02-21T06:52:29;17.55;;;10.23;;
79074;SDS011;68476;42.710;23.388;2024-02-21T06:54:56;20.05;;;11.82;;
79074;SDS011;68476;42.710;23.388;2024-02-21T06:57:21;20.70;;;13.25;;
79074;SDS011;68476;42.710;23.388;2024-02-21T06:59:47;21.67;;;13.55;;
79074;SDS011;68476;42.710;23.388;2024-02-21T07:02:12;21.20;;;12.20;;
79074;SDS011;68476;42.710;23.388;2024-02-21T07:04:38;18.10;;;11.75;;
79074;SDS011;68476;42.710;23.388;2024-02-21T07:07:03;17.85;;;12.25;;
79074;SDS011;68476;42.710;23.388;2024-02-21T07:09:29;20.30;;;13.00;;
79074;SDS011;68476;42.710;23.388;2024-02-21T07:11:57;23.67;;;13.30;;
79074;SDS011;68476;42.710;23.388;2024-02-21T07:14:23;20.02;;;12.77;;
79074;SDS011;68476;42.710;23.388;2024-02-21T07:16:48;19.58;;;12.60;;
79074;SDS011;68476;42.710;23.388;2024-02-21T07:19:13;19.83;;;13.18;;
79074;SDS011;68476;42.710;23.388;2024-02-21T07:21:39;20.38;;;11.70;;
79074;SDS011;68476;42.710;23.388;2024-02-21T07:24:07;19.98;;;11.80;;
79074;SDS011;68476;42.710;23.388;2024-02-21T07:26:32;20.85;;;11.90;;
79074;SDS011;68476;42.710;23.388;2024-02-21T07:28:58;19.35;;;12.00;;
79074;SDS011;68476;42.710;23.388;2024-02-21T07:31:23;22.73;;;12.23;;
79074;SDS011;68476;42.710;23.388;2024-02-21T07:33:49;17.83;;;11.52;;
79074;SDS011;68476;42.710;23.388;2024-02-21T07:36:25;16.98;;;11.27;;
79074;SDS011;68476;42.710;23.388;2024-02-21T07:38:54;18.15;;;10.82;;
79074;SDS011;68476;42.710;23.388;2024-02-21T07:41:20;19.60;;;12.10;;
79074;SDS011;68476;42.710;23.388;2024-02-21T07:43:45;16.83;;;11.25;;
79074;SDS011;68476;42.710;23.388;2024-02-21T07:46:11;17.15;;;11.38;;
79074;SDS011;68476;42.710;23.388;2024-02-21T07:48:36;15.40;;;10.25;;
79074;SDS011;68476;42.710;23.388;2024-02-21T07:51:02;19.45;;;11.07;;
79074;SDS011;68476;42.710;23.388;2024-02-21T07:53:27;16.25;;;10.63;;
79074;SDS011;68476;42.710;23.388;2024-02-21T07:55:53;13.20;;;9.00;;
79074;SDS011;68476;42.710;23.388;2024-02-21T07:58:18;18.10;;;11.15;;
79074;SDS011;68476;42.710;23.388;2024-02-21T08:00:44;17.70;;;11.77;;
79074;SDS011;68476;42.710;23.388;2024-02-21T08:03:09;18.33;;;11.25;;
79074;SDS011;68476;42.710;23.388;2024-02-21T08:05:35;16.70;;;10.55;;
79074;SDS011;68476;42.710;23.388;2024-02-21T08:08:00;17.25;;;11.43;;
79074;SDS011;68476;42.710;23.388;2024-02-21T08:10:26;16.85;;;10.93;;
79074;SDS011;68476;42.710;23.388;2024-02-21T08:12:51;17.77;;;11.93;;
79074;SDS011;68476;42.710;23.388;2024-02-21T08:15:17;18.83;;;11.85;;
79074;SDS011;68476;42.710;23.388;2024-02-21T08:17:42;18.83;;;11.75;;
79074;SDS011;68476;42.710;23.388;2024-02-21T08:20:08;19.20;;;12.27;;
79074;SDS011;68476;42.710;23.388;2024-02-21T08:22:36;15.95;;;11.60;;
79074;SDS011;68476;42.710;23.388;2024-02-21T08:25:02;20.92;;;12.65;;
79074;SDS011;68476;42.710;23.388;2024-02-21T08:27:30;18.92;;;12.63;;
79074;SDS011;68476;42.710;23.388;2024-02-21T08:29:56;17.40;;;11.20;;
79074;SDS011;68476;42.710;23.388;2024-02-21T08:32:21;16.92;;;10.63;;
79074;SDS011;68476;42.710;23.388;2024-02-21T08:34:47;18.30;;;10.20;;
79074;SDS011;68476;42.710;23.388;2024-02-21T08:37:15;19.58;;;11.57;;
79074;SDS011;68476;42.710;23.388;2024-02-21T08:39:40;18.58;;;12.00;;
79074;SDS011;68476;42.710;23.388;2024-02-21T08:42:06;17.25;;;10.68;;
79074;SDS011;68476;42.710;23.388;2024-02-21T08:44:32;16.08;;;10.25;;
79074;SDS011;68476;42.710;23.388;2024-02-21T08:46:57;14.90;;;9.98;;
79074;SDS011;68476;42.710;23.388;2024-02-21T08:49:23;15.75;;;10.38;;
79074;SDS011;68476;42.710;23.388;2024-02-21T08:51:48;14.00;;;9.18;;
79074;SDS011;68476;42.710;23.388;2024-02-21T08:54:14;14.18;;;9.23;;
79074;SDS011;68476;42.710;23.388;2024-02-21T08:56:39;16.65;;;10.07;;
79074;SDS011;68476;42.710;23.388;2024-02-21T08:59:05;18.08;;;10.38;;
79074;SDS011;68476;42.710;23.388;2024-02-21T09:01:30;15.98;;;10.13;;
79074;SDS011;68476;42.710;23.388;2024-02-21T09:03:56;17.08;;;10.88;;
79074;SDS011;68476;42.710;23.388;2024-02-21T09:06:22;15.65;;;9.80;;
79074;SDS011;68476;42.710;23.388;2024-02-21T09:08:48;17.88;;;11.68;;
79074;SDS011;68476;42.710;23.388;2024-02-21T09:11:14;16.42;;;10.63;;
79074;SDS011;68476;42.710;23.388;2024-02-21T09:13:41;15.38;;;9.80;;
79074;SDS011;68476;42.710;23.388;2024-02-21T09:16:06;15.43;;;10.43;;
79074;SDS011;68476;42.710;23.388;2024-02-21T09:18:32;14.70;;;9.38;;
79074;SDS011;68476;42.710;23.388;2024-02-21T09:20:57;14.65;;;10.27;;
79074;SDS011;68476;42.710;23.388;2024-02-21T09:23:26;15.88;;;10.85;;
79074;SDS011;68476;42.710;23.388;2024-02-21T09:25:52;14.75;;;10.23;;
79074;SDS011;68476;42.710;23.388;2024-02-21T09:28:17;14.10;;;9.75;;
79074;SDS011;68476;42.710;23.388;2024-02-21T09:30:43;14.85;;;10.18;;
79074;SDS011;68476;42.710;23.388;2024-02-21T09:33:08;12.73;;;8.60;;
79074;SDS011;68476;42.710;23.388;2024-02-21T09:35:37;14.55;;;10.02;;
79074;SDS011;68476;42.710;23.388;2024-02-21T09:38:02;14.15;;;8.38;;
79074;SDS011;68476;42.710;23.388;2024-02-21T09:40:28;13.75;;;8.70;;
79074;SDS011;68476;42.710;23.388;2024-02-21T09:43:03;14.15;;;9.80;;
79074;SDS011;68476;42.710;23.388;2024-02-21T09:45:32;17.55;;;9.35;;
79074;SDS011;68476;42.710;23.388;2024-02-21T09:48:19;13.80;;;9.32;;
79074;SDS011;68476;42.710;23.388;2024-02-21T09:51:16;15.13;;;9.45;;
79074;SDS011;68476;42.710;23.388;2024-02-21T09:53:44;14.57;;;9.07;;
79074;SDS011;68476;42.710;23.388;2024-02-21T09:56:10;15.15;;;9.50;;
79074;SDS011;68476;42.710;23.388;2024-02-21T09:58:37;12.43;;;8.52;;
79074;SDS011;68476;42.710;23.388;2024-02-21T10:01:03;14.68;;;8.05;;
79074;SDS011;68476;42.710;23.388;2024-02-21T10:03:31;9.48;;;6.80;;
79074;SDS011;68476;42.710;23.388;2024-02-21T10:05:58;13.43;;;8.43;;
79074;SDS011;68476;42.710;23.388;2024-02-21T10:08:26;12.75;;;8.35;;
79074;SDS011;68476;42.710;23.388;2024-02-21T10:10:52;12.25;;;8.13;;
79074;SDS011;68476;42.710;23.388;2024-02-21T10:13:30;12.35;;;8.40;;
79074;SDS011;68476;42.710;23.388;2024-02-21T10:16:02;10.23;;;7.53;;
79074;SDS011;68476;42.710;23.388;2024-02-21T10:18:32;9.93;;;6.95;;
79074;SDS011;68476;42.710;23.388;2024-02-21T10:23:46;13.77;;;7.93;;
79074;SDS011;68476;42.710;23.388;2024-02-21T10:26:19;13.45;;;8.50;;
79074;SDS011;68476;42.710;23.388;2024-02-21T10:28:45;12.07;;;8.85;;
79074;SDS011;68476;42.710;23.388;2024-02-21T10:31:21;10.68;;;7.75;;
79074;SDS011;68476;42.710;23.388;2024-02-21T10:33:59;11.65;;;7.78;;
79074;SDS011;68476;42.710;23.388;2024-02-21T10:36:28;9.63;;;6.47;;
79074;SDS011;68476;42.710;23.388;2024-02-21T10:38:54;11.95;;;8.70;;
79074;SDS011;68476;42.710;23.388;2024-02-21T10:41:20;11.88;;;8.43;;
79074;SDS011;68476;42.710;23.388;2024-02-21T10:43:51;11.57;;;8.95;;
79074;SDS011;68476;42.710;23.388;2024-02-21T10:46:19;12.40;;;8.55;;
79074;SDS011;68476;42.710;23.388;2024-02-21T10:48:46;12.40;;;8.57;;
79074;SDS011;68476;42.710;23.388;2024-02-21T10:51:16;12.65;;;7.78;;
79074;SDS011;68476;42.710;23.388;2024-02-21T10:53:45;10.32;;;7.72;;
79074;SDS011;68476;42.710;23.388;2024-02-21T10:56:21;9.32;;;7.60;;
79074;SDS011;68476;42.710;23.388;2024-02-21T10:59:00;9.10;;;7.18;;
79074;SDS011;68476;42.710;23.388;2024-02-21T11:01:30;9.82;;;7.25;;
79074;SDS011;68476;42.710;23.388;2024-02-21T11:04:06;8.95;;;6.75;;
79074;SDS011;68476;42.710;23.388;2024-02-21T11:06:34;8.40;;;5.85;;
79074;SDS011;68476;42.710;23.388;2024-02-21T11:09:07;7.20;;;5.63;;
79074;SDS011;68476;42.710;23.388;2024-02-21T11:11:34;11.57;;;6.65;;
79074;SDS011;68476;42.710;23.388;2024-02-21T11:14:07;8.20;;;6.03;;
79074;SDS011;68476;42.710;23.388;2024-02-21T11:16:36;7.88;;;5.65;;
79074;SDS011;68476;42.710;23.388;2024-02-21T11:19:07;5.07;;;4.15;;
79074;SDS011;68476;42.710;23.388;2024-02-21T11:21:35;7.97;;;5.32;;
79074;SDS011;68476;42.710;23.388;2024-02-21T11:24:01;8.07;;;5.38;;
79074;SDS011;68476;42.710;23.388;2024-02-21T11:26:28;6.13;;;5.07;;
79074;SDS011;68476;42.710;23.388;2024-02-21T11:28:58;6.45;;;5.00;;
79074;SDS011;68476;42.710;23.388;2024-02-21T11:31:38;11.35;;;5.00;;
79074;SDS011;68476;42.710;23.388;2024-02-21T11:34:07;5.20;;;4.00;;
79074;SDS011;68476;42.710;23.388;2024-02-21T11:39:05;7.70;;;4.10;;
79074;SDS011;68476;42.710;23.388;2024-02-21T11:41:31;7.15;;;4.57;;
79074;SDS011;68476;42.710;23.388;2024-02-21T11:43:57;6.78;;;4.13;;
79074;SDS011;68476;42.710;23.388;2024-02-21T11:46:22;7.65;;;4.63;;
79074;SDS011;68476;42.710;23.388;2024-02-21T11:48:48;6.13;;;4.78;;
79074;SDS011;68476;42.710;23.388;2024-02-21T11:51:26;7.32;;;4.97;;
79074;SDS011;68476;42.710;23.388;2024-02-21T11:53:54;6.25;;;4.70;;
79074;SDS011;68476;42.710;23.388;2024-02-21T11:56:20;5.80;;;4.88;;
79074;SDS011;68476;42.710;23.388;2024-02-21T11:58:47;6.35;;;5.35;;
79074;SDS011;68476;42.710;23.388;2024-02-21T12:01:13;8.07;;;5.63;;
79074;SDS011;68476;42.710;23.388;2024-02-21T12:03:39;6.53;;;5.32;;
79074;SDS011;68476;42.710;23.388;2024-02-21T12:06:06;7.10;;;4.90;;
79074;SDS011;68476;42.710;23.388;2024-02-21T12:08:44;10.80;;;5.78;;
79074;SDS011;68476;42.710;23.388;2024-02-21T12:11:18;7.63;;;4.82;;
79074;SDS011;68476;42.710;23.388;2024-02-21T12:13:46;13.95;;;5.57;;
79074;SDS011;68476;42.710;23.388;2024-02-21T12:16:14;6.80;;;4.90;;
79074;SDS011;68476;42.710;23.388;2024-02-21T12:21:06;8.25;;;4.55;;
79074;SDS011;68476;42.710;23.388;2024-02-21T12:23:32;6.25;;;4.32;;
79074;SDS011;68476;42.710;23.388;2024-02-21T12:25:59;7.72;;;4.85;;
79074;SDS011;68476;42.710;23.388;2024-02-21T12:28:24;8.63;;;5.50;;
79074;SDS011;68476;42.710;23.388;2024-02-21T12:30:51;7.80;;;5.65;;
79074;SDS011;68476;42.710;23.388;2024-02-21T12:33:17;9.00;;;5.60;;
79074;SDS011;68476;42.710;23.388;2024-02-21T12:35:43;7.72;;;5.60;;
79074;SDS011;68476;42.710;23.388;2024-02-21T12:38:08;7.03;;;5.00;;
79074;SDS011;68476;42.710;23.388;2024-02-21T12:40:34;7.90;;;5.40;;
79074;SDS011;68476;42.710;23.388;2024-02-21T12:43:00;8.32;;;5.10;;
79074;SDS011;68476;42.710;23.388;2024-02-21T12:45:28;8.15;;;5.18;;
79074;SDS011;68476;42.710;23.388;2024-02-21T12:47:54;9.60;;;5.97;;
79074;SDS011;68476;42.710;23.388;2024-02-21T12:50:19;11.15;;;6.72;;
79074;SDS011;68476;42.710;23.388;2024-02-21T12:52:45;9.80;;;6.07;;
79074;SDS011;68476;42.710;23.388;2024-02-21T12:55:11;8.85;;;7.05;;
79074;SDS011;68476;42.710;23.388;2024-02-21T12:57:38;11.65;;;7.35;;
79074;SDS011;68476;42.710;23.388;2024-02-21T13:00:05;10.13;;;7.07;;
79074;SDS011;68476;42.710;23.388;2024-02-21T13:02:33;11.50;;;6.47;;
79074;SDS011;68476;42.710;23.388;2024-02-21T13:04:59;8.63;;;6.38;;
79074;SDS011;68476;42.710;23.388;2024-02-21T13:07:25;9.35;;;6.22;;
79074;SDS011;68476;42.710;23.388;2024-02-21T13:09:50;8.93;;;5.40;;
79074;SDS011;68476;42.710;23.388;2024-02-21T13:12:16;10.00;;;7.43;;
79074;SDS011;68476;42.710;23.388;2024-02-21T13:14:41;9.77;;;6.43;;
79074;SDS011;68476;42.710;23.388;2024-02-21T13:17:08;9.63;;;7.05;;
79074;SDS011;68476;42.710;23.388;2024-02-21T13:19:34;9.32;;;6.78;;
79074;SDS011;68476;42.710;23.388;2024-02-21T13:22:00;10.90;;;7.65;;
79074;SDS011;68476;42.710;23.388;2024-02-21T13:24:25;9.98;;;6.68;;
79074;SDS011;68476;42.710;23.388;2024-02-21T13:26:51;10.07;;;6.85;;
79074;SDS011;68476;42.710;23.388;2024-02-21T13:29:16;12.05;;;7.13;;
79074;SDS011;68476;42.710;23.388;2024-02-21T13:31:42;8.68;;;6.68;;
79074;SDS011;68476;42.710;23.388;2024-02-21T13:34:09;9.70;;;6.65;;
79074;SDS011;68476;42.710;23.388;2024-02-21T13:36:34;7.20;;;5.63;;
79074;SDS011;68476;42.710;23.388;2024-02-21T13:39:00;6.85;;;5.47;;
79074;SDS011;68476;42.710;23.388;2024-02-21T13:41:25;6.82;;;5.25;;
79074;SDS011;68476;42.710;23.388;2024-02-21T13:43:51;7.30;;;5.28;;
79074;SDS011;68476;42.710;23.388;2024-02-21T13:46:17;7.68;;;6.07;;
79074;SDS011;68476;42.710;23.388;2024-02-21T13:48:42;10.43;;;6.05;;
79074;SDS011;68476;42.710;23.388;2024-02-21T13:51:08;11.85;;;5.78;;
79074;SDS011;68476;42.710;23.388;2024-02-21T13:53:34;11.75;;;7.20;;
79074;SDS011;68476;42.710;23.388;2024-02-21T13:55:59;9.82;;;6.28;;
79074;SDS011;68476;42.710;23.388;2024-02-21T13:58:25;9.75;;;6.72;;
79074;SDS011;68476;42.710;23.388;2024-02-21T14:00:51;11.82;;;7.10;;
79074;SDS011;68476;42.710;23.388;2024-02-21T14:03:17;9.70;;;6.68;;
79074;SDS011;68476;42.710;23.388;2024-02-21T14:05:44;10.40;;;7.22;;
79074;SDS011;68476;42.710;23.388;2024-02-21T14:08:09;12.13;;;6.45;;
79074;SDS011;68476;42.710;23.388;2024-02-21T14:10:35;8.70;;;6.80;;
79074;SDS011;68476;42.710;23.388;2024-02-21T14:13:00;8.73;;;6.45;;
79074;SDS011;68476;42.710;23.388;2024-02-21T14:15:25;7.93;;;5.93;;
79074;SDS011;68476;42.710;23.388;2024-02-21T14:17:51;14.70;;;5.65;;
79074;SDS011;68476;42.710;23.388;2024-02-21T14:20:17;7.07;;;5.22;;
79074;SDS011;68476;42.710;23.388;2024-02-21T14:22:42;10.20;;;5.75;;
79074;SDS011;68476;42.710;23.388;2024-02-21T14:25:08;9.30;;;5.57;;
79074;SDS011;68476;42.710;23.388;2024-02-21T14:27:33;16.23;;;6.15;;
79074;SDS011;68476;42.710;23.388;2024-02-21T14:30:01;8.48;;;5.93;;